Time;durP1;ratioP1;P1;durP2;ratioP2;P2;SDS_P1;SDS_P2;PMS_P1;PMS_P2;Temp;Humidity;BMP_temperature;BMP_pressure;BME280_temperature;BME280_humidity;BME280_pressure;Samples;Min_cycle;Max_cycle;Signal;HPM_P1;HPM_P2
2022/12/15 00:38:59;;;;;;;27.43;15.40;;;-3.50;99.90;;;-3.74;77.68;98985.38;4973370;28;20213;-69
2022/12/15 00:41:31;;;;;;;30.60;17.23;;;-3.50;99.90;;;-3.71;77.46;98996.38;4973819;28;20232;-69
2022/12/15 00:43:59;;;;;;;25.53;15.07;;;-3.30;99.90;;;-3.70;77.51;98989.69;4973504;28;20252;-68
2022/12/15 01:22:27;;;;;;;30.80;16.17;;;-3.20;99.90;;;-3.47;76.72;98975.19;4972424;28;20251;-70
2022/12/15 01:24:56;;;;;;;29.30;16.27;;;-3.20;99.90;;;-3.46;76.69;98975.25;4973523;28;20251;-70
2022/12/15 01:27:24;;;;;;;27.50;15.17;;;-3.20;99.90;;;-3.44;76.42;98973.63;4973846;28;20209;-68
2022/12/15 01:29:53;;;;;;;25.17;14.80;;;-3.20;99.90;;;-3.40;76.66;98975.41;4972261;28;20336;-67
2022/12/15 01:32:21;;;;;;;27.20;15.23;;;-3.20;99.90;;;-3.36;76.72;98972.97;4968952;28;20205;-68
2022/12/15 01:34:50;;;;;;;26.20;15.67;;;-3.10;99.90;;;-3.33;76.60;98976.41;4970923;28;20275;-71
2022/12/15 01:37:18;;;;;;;29.57;16.33;;;-3.10;99.90;;;-3.30;76.60;98973.13;4971644;28;20295;-68
2022/12/15 01:42:34;;;;;;;28.00;15.97;;;-3.00;99.90;;;-3.24;76.25;98974.16;4973386;28;20560;-69
2022/12/15 01:45:49;;;;;;;26.73;15.40;;;-3.00;99.90;;;-3.21;75.99;98974.22;4973012;28;20235;-72
2022/12/15 01:48:26;;;;;;;26.30;15.57;;;-3.00;99.90;;;-3.13;75.77;98976.06;4970952;28;20630;-71
2022/12/15 01:51:09;;;;;;;26.57;15.23;;;-2.90;99.90;;;-3.12;75.71;98973.63;4967672;28;20296;-71
2022/12/15 01:53:43;;;;;;;26.90;16.13;;;-2.90;99.90;;;-3.11;75.62;98980.34;4962443;28;20204;-71
2022/12/15 01:56:13;;;;;;;24.17;15.20;;;-2.90;99.90;;;-3.13;75.41;98974.41;4971979;28;20665;-71
2022/12/15 01:58:45;;;;;;;24.97;15.47;;;-2.90;99.90;;;-3.08;75.76;98977.06;4970644;28;20303;-72
2022/12/15 02:01:14;;;;;;;29.17;16.10;;;-2.90;99.90;;;-3.05;75.46;98975.47;4972257;28;20224;-72
2022/12/15 02:03:44;;;;;;;27.47;15.30;;;-2.80;99.90;;;-3.01;75.37;98969.69;4973161;28;20224;-72
2022/12/15 02:06:15;;;;;;;25.90;15.70;;;-2.80;99.90;;;-2.98;75.09;98964.75;4975055;28;20709;-71
2022/12/15 02:08:47;;;;;;;24.83;15.33;;;-2.80;99.90;;;-2.92;75.43;98971.59;4972270;28;20196;-73
2022/12/15 02:11:41;;;;;;;25.63;15.50;;;-2.70;99.90;;;-2.89;75.24;98970.81;4975051;28;20240;-72
2022/12/15 02:14:12;;;;;;;26.93;15.83;;;-2.70;99.90;;;-2.93;74.79;98969.88;4972503;28;20212;-72
2022/12/15 02:17:01;;;;;;;24.97;15.37;;;-2.70;99.90;;;-2.95;74.73;98971.50;4975538;28;20213;-71
2022/12/15 02:20:28;;;;;;;25.47;14.90;;;-2.70;99.90;;;-2.97;74.84;98983.22;4974107;28;20285;-71
2022/12/15 02:23:44;;;;;;;23.30;14.57;;;-2.80;99.90;;;-2.98;74.52;98979.84;4962054;28;20204;-72
2022/12/15 02:26:43;;;;;;;25.00;14.83;;;-2.70;99.90;;;-2.97;75.01;98978.19;4937536;28;20260;-72
2022/12/15 02:29:27;;;;;;;26.60;16.63;;;-2.70;99.90;;;-3.00;74.42;98973.06;4975482;28;20248;-69
2022/12/15 02:32:02;;;;;;;25.97;15.27;;;-2.70;99.90;;;-3.00;74.83;98985.66;4974278;28;20209;-69
2022/12/15 02:34:41;;;;;;;26.90;15.70;;;-2.80;99.90;;;-3.02;75.11;98974.69;4975333;28;20316;-70
2022/12/15 02:37:15;;;;;;;26.13;15.27;;;-2.80;99.90;;;-3.02;74.89;98979.72;4975143;28;20204;-70
2022/12/15 02:39:44;;;;;;;25.87;16.20;;;-2.80;99.90;;;-2.98;75.40;98977.34;4964110;28;20736;-69
2022/12/15 02:42:13;;;;;;;31.17;17.10;;;-2.80;99.90;;;-2.96;74.66;98978.22;4974744;28;20216;-69
2022/12/15 02:44:48;;;;;;;28.57;16.60;;;-2.70;99.90;;;-2.96;74.81;98972.31;4976997;28;20244;-70
2022/12/15 02:47:32;;;;;;;26.90;15.97;;;-2.70;99.90;;;-2.94;74.40;98978.28;4981160;28;20212;-70
2022/12/15 02:50:29;;;;;;;25.57;15.83;;;-2.70;99.90;;;-2.92;74.78;98982.50;4977320;28;20201;-71
2022/12/15 02:53:15;;;;;;;30.03;15.33;;;-2.70;99.90;;;-2.88;74.61;98992.66;4979624;28;20634;-70
2022/12/15 02:55:55;;;;;;;23.00;15.40;;;-2.70;99.90;;;-2.86;74.37;98986.00;4972982;28;20240;-69
2022/12/15 02:58:31;;;;;;;27.63;15.90;;;-2.70;99.90;;;-2.79;74.59;98993.75;4980346;28;20683;-70
2022/12/15 03:01:08;;;;;;;25.37;15.40;;;-2.70;99.90;;;-2.75;74.37;98987.97;4983817;28;20324;-70
2022/12/15 03:03:39;;;;;;;26.93;15.93;;;-2.60;99.90;;;-2.68;74.62;98989.00;4984049;28;20208;-69
2022/12/15 03:06:09;;;;;;;27.93;16.03;;;-2.50;99.90;;;-2.63;73.77;98999.19;4983052;28;20224;-70
2022/12/15 03:08:38;;;;;;;27.33;15.83;;;-2.50;99.90;;;-2.63;73.88;98989.09;4985172;28;20209;-70
2022/12/15 03:11:06;;;;;;;27.47;16.93;;;-2.50;99.90;;;-2.62;73.83;98991.63;4986455;28;20235;-71
2022/12/15 03:13:36;;;;;;;26.43;17.37;;;-2.50;99.90;;;-2.61;73.54;98980.75;4973190;28;20287;-69
2022/12/15 03:16:05;;;;;;;30.03;17.10;;;-2.50;99.90;;;-2.55;73.58;98990.97;4972986;28;20204;-71
2022/12/15 03:18:33;;;;;;;32.53;18.80;;;-2.40;99.90;;;-2.53;73.34;98991.03;4967867;28;20642;-69
2022/12/15 03:21:03;;;;;;;30.53;18.30;;;-2.40;99.90;;;-2.52;73.40;98988.53;4974561;28;20205;-73
2022/12/15 03:23:32;;;;;;;30.67;17.83;;;-2.40;99.90;;;-2.48;73.10;98990.28;4973850;28;20654;-72
2022/12/15 03:26:01;;;;;;;29.43;18.13;;;-2.40;99.90;;;-2.46;73.68;98983.63;4972896;28;20665;-68
2022/12/15 03:28:30;;;;;;;31.20;19.73;;;-2.40;99.90;;;-2.42;73.36;98993.78;4971220;28;20201;-69
2022/12/15 03:30:58;;;;;;;33.23;20.00;;;-2.30;99.90;;;-2.39;72.92;98993.84;4971729;28;20205;-70
2022/12/15 03:33:26;;;;;;;31.93;17.67;;;-2.30;99.90;;;-2.36;73.24;98993.91;4971747;28;20268;-68
2022/12/15 03:35:55;;;;;;;28.83;18.07;;;-2.30;99.90;;;-2.31;72.99;98997.41;4969745;28;20209;-69
2022/12/15 03:38:25;;;;;;;29.47;17.77;;;-2.30;99.90;;;-2.28;72.70;99003.38;4981522;28;20256;-70
2022/12/15 03:40:53;;;;;;;29.10;17.67;;;-2.20;99.90;;;-2.24;72.86;99010.19;4983909;28;20217;-69
2022/12/15 03:43:22;;;;;;;27.77;16.20;;;-2.10;99.90;;;-2.19;72.73;99010.28;4982986;28;20252;-69
2022/12/15 03:45:50;;;;;;;23.97;16.33;;;-2.10;99.90;;;-2.12;73.11;99016.34;4983125;28;20220;-70
2022/12/15 03:48:19;;;;;;;27.90;17.07;;;-2.10;99.90;;;-2.10;73.04;99018.09;4984081;28;20207;-71
2022/12/15 03:50:48;;;;;;;28.20;17.17;;;-2.00;99.90;;;-2.06;72.88;99006.34;4982389;28;20244;-71
2022/12/15 03:53:17;;;;;;;27.70;16.77;;;-2.00;99.90;;;-2.04;72.41;99015.69;4975096;28;20584;-70
2022/12/15 03:55:47;;;;;;;28.03;16.30;;;-2.00;99.90;;;-1.98;72.88;99017.50;4973154;28;20236;-71
2022/12/15 03:58:15;;;;;;;29.73;17.17;;;-1.90;99.90;;;-1.98;72.31;99018.34;4973910;28;20291;-68
2022/12/15 04:00:44;;;;;;;32.67;17.27;;;-1.90;99.90;;;-2.01;72.72;99012.38;4977939;28;20232;-71
2022/12/15 04:03:12;;;;;;;30.00;17.27;;;-2.00;99.90;;;-1.99;71.99;99011.59;4974088;28;20212;-69
2022/12/15 04:05:41;;;;;;;30.87;17.40;;;-1.90;99.90;;;-1.97;72.36;99012.47;4969550;28;20212;-68
2022/12/15 04:08:10;;;;;;;31.03;17.60;;;-1.80;99.90;;;-1.96;71.73;99020.91;4972983;28;20209;-69
2022/12/15 04:10:38;;;;;;;30.80;18.60;;;-1.90;99.90;;;-1.97;72.54;99017.53;4981296;28;20213;-69
2022/12/15 04:13:11;;;;;;;32.87;18.47;;;-1.90;99.90;;;-1.92;72.59;99019.28;4980251;28;20224;-69
2022/12/15 04:15:40;;;;;;;29.57;17.37;;;-1.90;99.90;;;-1.89;72.07;99017.69;4973310;28;20227;-69
2022/12/15 04:18:10;;;;;;;28.83;17.40;;;-1.90;99.90;;;-1.87;72.22;99017.72;4977638;28;21726;-69
2022/12/15 04:20:40;;;;;;;28.80;17.53;;;-1.90;99.90;;;-1.87;72.20;99030.34;4978834;28;20216;-69
2022/12/15 04:23:08;;;;;;;30.63;17.67;;;-1.80;99.90;;;-1.85;71.70;99038.81;4978891;28;20209;-69
2022/12/15 05:32:31;;;;;;;30.93;17.97;;;-1.90;99.90;;;-1.96;72.26;99107.56;4971094;28;20212;-74
2022/12/15 05:35:01;;;;;;;33.33;18.33;;;-1.90;99.90;;;-1.99;72.10;99117.63;4972293;28;20228;-74
2022/12/15 05:37:29;;;;;;;33.80;19.03;;;-1.90;99.90;;;-2.01;72.33;99120.91;4979430;28;20224;-73
2022/12/15 05:39:57;;;;;;;30.40;18.73;;;-1.90;99.90;;;-1.99;72.12;99132.75;4977633;28;20287;-74
2022/12/15 05:42:26;;;;;;;33.07;20.07;;;-1.90;99.90;;;-1.99;72.06;99140.34;4974398;28;20248;-73
2022/12/15 05:44:54;;;;;;;36.90;20.13;;;-1.90;99.90;;;-2.02;72.15;99141.94;4973129;28;20204;-73
2022/12/15 05:47:22;;;;;;;35.33;19.37;;;-1.90;99.90;;;-2.05;71.76;99142.69;4971193;28;20256;-70
2022/12/15 05:49:51;;;;;;;36.03;19.67;;;-2.00;99.90;;;-2.09;71.93;99155.22;4972339;28;20679;-71
2022/12/15 05:52:21;;;;;;;32.83;19.77;;;-2.10;99.90;;;-2.14;71.45;99144.97;4966251;28;20248;-71
2022/12/15 05:54:50;;;;;;;33.63;19.47;;;-2.00;99.90;;;-2.13;72.13;99154.28;4975162;28;20642;-70
2022/12/15 05:57:18;;;;;;;35.77;19.87;;;-2.10;99.90;;;-2.14;72.61;99152.56;4972348;28;20654;-72
2022/12/15 05:59:47;;;;;;;31.13;18.67;;;-2.10;99.90;;;-2.14;72.39;99157.59;4971566;28;20267;-72
2022/12/15 06:02:15;;;;;;;36.33;21.37;;;-2.10;99.90;;;-2.16;71.95;99165.97;4966318;28;20278;-71
2022/12/15 06:04:43;;;;;;;35.80;20.30;;;-2.00;99.90;;;-2.17;72.04;99170.16;4972304;28;20224;-69
2022/12/15 06:07:12;;;;;;;36.43;20.97;;;-2.10;99.90;;;-2.23;71.98;99168.31;4971475;28;20243;-69
2022/12/15 06:09:42;;;;;;;37.30;19.87;;;-2.10;99.90;;;-2.22;71.70;99179.28;4967595;28;20268;-69
2022/12/15 06:12:10;;;;;;;36.60;20.13;;;-2.20;99.90;;;-2.26;71.97;99185.91;4970708;28;20213;-70
2022/12/15 06:14:39;;;;;;;37.90;20.63;;;-2.20;99.90;;;-2.28;72.18;99185.03;4971102;28;20239;-70
2022/12/15 06:17:08;;;;;;;33.90;19.73;;;-2.20;99.90;;;-2.30;72.11;99195.88;4968347;28;20216;-69
2022/12/15 06:19:36;;;;;;;34.83;21.07;;;-2.20;99.90;;;-2.30;72.37;99205.97;4970818;28;20216;-69
2022/12/15 06:22:05;;;;;;;38.47;21.20;;;-2.20;99.90;;;-2.32;72.14;99205.94;4966122;28;20209;-70
2022/12/15 06:24:34;;;;;;;38.87;20.53;;;-2.30;99.90;;;-2.35;72.36;99210.06;4983575;28;20208;-69
2022/12/15 06:27:04;;;;;;;37.50;20.70;;;-2.30;99.90;;;-2.40;72.14;99217.47;4959904;28;20685;-71
2022/12/15 06:29:32;;;;;;;35.43;21.17;;;-2.30;99.90;;;-2.45;72.56;99219.88;4981294;28;20235;-68
2022/12/15 06:32:01;;;;;;;36.97;20.90;;;-2.40;99.90;;;-2.50;72.43;99226.50;4967117;28;20209;-69
2022/12/15 06:34:29;;;;;;;35.93;21.03;;;-2.40;99.90;;;-2.55;72.73;99227.16;4968292;28;20295;-71
2022/12/15 06:36:58;;;;;;;37.57;21.63;;;-2.50;99.90;;;-2.58;72.59;99232.13;4976493;28;20259;-71
2022/12/15 06:39:26;;;;;;;36.03;21.30;;;-2.30;99.90;;;-2.64;72.86;99235.34;4968328;28;20327;-69
2022/12/15 06:41:54;;;;;;;38.80;21.80;;;-2.50;99.90;;;-2.70;73.07;99247.75;4973700;28;20253;-71
2022/12/15 06:44:24;;;;;;;41.37;22.57;;;-2.50;99.90;;;-2.71;73.03;99244.38;4974502;28;20657;-69
2022/12/15 06:46:52;;;;;;;35.80;22.00;;;-2.30;99.90;;;-2.71;73.69;99253.63;4979421;28;20278;-70
2022/12/15 06:49:21;;;;;;;40.13;22.20;;;-2.50;99.90;;;-2.69;73.36;99254.50;4979219;28;20307;-70
2022/12/15 06:51:50;;;;;;;37.50;22.60;;;-2.50;99.90;;;-2.70;73.61;99260.38;4977712;28;20280;-69
2022/12/15 06:54:18;;;;;;;39.47;21.87;;;-2.50;99.90;;;-2.69;73.49;99269.63;4985407;28;20227;-71
2022/12/15 06:56:48;;;;;;;41.40;22.48;;;-2.60;99.90;;;-2.72;72.85;99267.06;4987152;28;20397;-70
2022/12/15 06:59:17;;;;;;;38.50;22.13;;;-2.60;99.90;;;-2.75;73.67;99272.00;4975377;28;20208;-70
2022/12/15 07:01:47;;;;;;;38.40;23.27;;;-2.60;99.90;;;-2.76;73.38;99275.31;4981197;28;20623;-68
2022/12/15 07:04:15;;;;;;;39.20;23.60;;;-2.60;99.90;;;-2.79;73.50;99276.09;4982891;28;20295;-68
2022/12/15 07:06:44;;;;;;;41.17;22.97;;;-2.60;99.90;;;-2.76;73.89;99278.72;4976160;28;20213;-67
2022/12/15 07:09:16;;;;;;;39.63;22.80;;;-2.60;99.90;;;-2.74;73.92;99289.69;4967494;28;20287;-70
2022/12/15 07:11:48;;;;;;;38.93;24.23;;;-2.60;99.90;;;-2.73;73.31;99288.84;4976972;28;20204;-69
2022/12/15 07:14:16;;;;;;;44.30;24.50;;;-2.60;99.90;;;-2.72;73.66;99292.25;4970390;28;20197;-70
2022/12/15 07:16:46;;;;;;;42.57;23.27;;;-2.60;99.90;;;-2.72;73.78;99289.75;4973558;28;20216;-70
2022/12/15 07:19:15;;;;;;;38.73;23.03;;;-2.60;99.90;;;-2.71;73.93;99299.84;4969286;28;20843;-72
2022/12/15 07:21:43;;;;;;;38.50;23.73;;;-2.60;99.90;;;-2.71;73.71;99304.91;4967798;28;20696;-69
2022/12/15 07:24:13;;;;;;;40.03;23.30;;;-2.60;99.90;;;-2.70;73.47;99313.31;4972424;28;20213;-74
2022/12/15 07:26:43;;;;;;;44.47;23.53;;;-2.60;99.90;;;-2.69;73.41;99312.50;4968711;28;20283;-69
2022/12/15 07:29:12;;;;;;;41.57;23.37;;;-2.60;99.90;;;-2.73;73.71;99316.59;4982848;28;20215;-70
2022/12/15 07:31:48;;;;;;;39.17;22.63;;;-2.60;99.90;;;-2.70;73.70;99323.41;4978522;28;20625;-70
2022/12/15 07:34:16;;;;;;;39.23;23.50;;;-2.60;99.90;;;-2.73;73.83;99326.69;4967611;28;20235;-69
2022/12/15 07:36:45;;;;;;;40.13;23.50;;;-2.60;99.90;;;-2.78;73.37;99335.78;4985716;28;20626;-69
2022/12/15 07:39:20;;;;;;;43.33;23.53;;;-2.50;99.90;;;-2.73;73.44;99340.94;4976523;28;20281;-70
2022/12/15 07:41:48;;;;;;;43.37;23.47;;;-2.60;99.90;;;-2.76;73.34;99343.38;4980808;28;20896;-68
2022/12/15 07:44:17;;;;;;;41.37;23.00;;;-2.60;99.90;;;-2.78;73.72;99353.44;4971267;28;20619;-69
2022/12/15 07:46:48;;;;;;;42.23;23.00;;;-2.70;99.90;;;-2.81;73.33;99360.03;4969841;28;20736;-68
2022/12/15 07:49:17;;;;;;;41.20;24.53;;;-2.70;99.90;;;-2.79;73.79;99358.44;4966962;28;20268;-69
2022/12/15 07:51:45;;;;;;;42.00;23.03;;;-2.70;99.90;;;-2.78;74.09;99362.66;4969201;28;20263;-69
2022/12/15 07:54:15;;;;;;;45.53;24.03;;;-2.70;99.90;;;-2.78;74.00;99361.00;4971413;28;20665;-68
2022/12/15 07:56:43;;;;;;;37.97;22.87;;;-2.60;99.90;;;-2.74;73.82;99364.47;4969704;28;20240;-69
2022/12/15 07:59:18;;;;;;;40.90;23.13;;;-2.60;99.90;;;-2.70;73.92;99376.34;4966820;28;20636;-70
2022/12/15 08:01:48;;;;;;;38.10;22.17;;;-2.60;99.90;;;-2.70;73.68;99372.16;4963446;28;20256;-71
2022/12/15 08:04:17;;;;;;;39.60;23.10;;;-2.60;99.90;;;-2.70;73.46;99376.34;4969838;28;20204;-70
2022/12/15 08:06:46;;;;;;;38.70;22.37;;;-2.60;99.90;;;-2.69;73.78;99383.09;4969934;28;20777;-71
2022/12/15 08:09:14;;;;;;;36.57;20.70;;;-2.50;99.90;;;-2.70;73.67;99378.88;4966134;28;20240;-70
2022/12/15 08:11:43;;;;;;;38.97;21.03;;;-2.50;99.90;;;-2.67;73.50;99389.06;4964543;28;20640;-68
2022/12/15 08:14:11;;;;;;;39.80;22.23;;;-2.50;99.90;;;-2.60;73.63;99396.00;4967759;28;20224;-71
2022/12/15 08:16:45;;;;;;;43.60;23.47;;;-2.40;99.90;;;-2.58;73.79;99389.31;4962411;28;20213;-70
2022/12/15 08:19:17;;;;;;;35.47;21.03;;;-2.40;99.90;;;-2.52;73.78;99398.75;4969015;28;20263;-68
2022/12/15 08:21:47;;;;;;;35.10;20.27;;;-2.40;99.90;;;-2.50;73.04;99402.19;4967457;28;20331;-69
2022/12/15 08:24:18;;;;;;;37.73;21.73;;;-2.40;99.90;;;-2.46;73.33;99404.84;4969337;28;20216;-71
2022/12/15 08:26:46;;;;;;;36.57;21.63;;;-2.30;99.90;;;-2.45;73.02;99409.06;4963889;28;20236;-69
2022/12/15 08:29:17;;;;;;;39.20;22.60;;;-2.30;99.90;;;-2.40;73.35;99416.75;4968295;28;20284;-69
2022/12/15 08:32:06;;;;;;;36.53;22.17;;;-2.30;99.90;;;-2.38;72.74;99409.25;4966115;28;20211;-71
2022/12/15 08:34:37;;;;;;;40.03;22.90;;;-2.20;99.90;;;-2.35;72.50;99420.31;4972010;28;20201;-70
2022/12/15 08:37:06;;;;;;;41.70;23.30;;;-2.20;99.90;;;-2.32;72.53;99430.50;4971775;28;20212;-70
2022/12/15 08:39:34;;;;;;;41.13;23.30;;;-2.20;99.90;;;-2.34;72.10;99433.75;4970489;28;20267;-70
2022/12/15 08:42:03;;;;;;;38.57;23.60;;;-2.20;99.90;;;-2.33;71.66;99435.47;4971498;28;20225;-71
2022/12/15 08:44:31;;;;;;;38.93;23.50;;;-2.30;99.90;;;-2.37;71.96;99437.03;4970269;28;20642;-71
2022/12/15 08:47:00;;;;;;;44.97;23.80;;;-2.20;99.90;;;-2.38;72.08;99439.53;4970284;28;20220;-71
2022/12/15 08:49:31;;;;;;;39.50;22.10;;;-2.20;99.90;;;-2.36;72.36;99442.94;4970214;28;20236;-71
2022/12/15 08:52:01;;;;;;;37.63;22.73;;;-2.20;99.90;;;-2.37;72.52;99443.75;4964102;28;20487;-69
2022/12/15 08:54:31;;;;;;;41.17;23.93;;;-2.20;99.90;;;-2.40;72.21;99441.13;4969852;28;20236;-70
2022/12/15 08:56:59;;;;;;;38.37;22.93;;;-2.30;99.90;;;-2.37;72.16;99446.28;4971232;28;20720;-68
2022/12/15 08:59:28;;;;;;;43.13;23.03;;;-2.20;99.90;;;-2.37;72.09;99447.13;4970159;28;20232;-69
2022/12/15 09:01:56;;;;;;;41.40;23.27;;;-2.20;99.90;;;-2.33;72.74;99448.09;4970529;28;20228;-70
2022/12/15 09:04:25;;;;;;;36.63;22.63;;;-2.20;99.90;;;-2.31;72.32;99456.56;4971277;28;20221;-70
2022/12/15 09:06:54;;;;;;;39.00;23.37;;;-2.20;99.90;;;-2.31;72.23;99461.63;4969825;28;20208;-70
2022/12/15 09:09:24;;;;;;;39.60;22.30;;;-2.20;99.90;;;-2.33;72.03;99471.63;4967546;28;20263;-70
2022/12/15 09:11:53;;;;;;;43.13;23.77;;;-2.20;99.90;;;-2.38;71.85;99463.09;4966778;28;20711;-71
2022/12/15 09:14:21;;;;;;;51.87;28.57;;;-2.20;99.90;;;-2.36;72.93;99460.59;4967317;28;20263;-70
2022/12/15 09:16:56;;;;;;;43.33;26.13;;;-2.20;99.90;;;-2.32;72.66;99465.81;4970497;28;20215;-70
2022/12/15 09:19:25;;;;;;;45.43;27.37;;;-2.10;99.90;;;-2.27;72.84;99468.47;4969327;28;20617;-70
2022/12/15 09:21:54;;;;;;;45.73;26.90;;;-2.10;99.90;;;-2.26;72.19;99472.69;4968151;28;20326;-70
2022/12/15 09:24:24;;;;;;;46.07;26.37;;;-2.10;99.90;;;-2.24;72.68;99469.41;4962210;28;20659;-70
2022/12/15 09:27:03;;;;;;;47.63;27.03;;;-2.10;99.90;;;-2.17;72.00;99479.66;4969297;28;20721;-69
2022/12/15 09:29:32;;;;;;;44.63;25.47;;;-2.00;99.90;;;-2.16;72.31;99478.88;4964598;28;20232;-69
2022/12/15 09:32:00;;;;;;;48.60;27.63;;;-2.10;99.90;;;-2.17;72.13;99482.19;4964544;28;20700;-70
2022/12/15 09:34:29;;;;;;;45.20;27.40;;;-2.10;99.90;;;-2.16;71.84;99492.34;4960789;28;20240;-73
2022/12/15 09:36:57;;;;;;;47.40;29.00;;;-2.00;99.90;;;-2.16;71.80;99492.34;4974687;28;20277;-72
2022/12/15 09:39:27;;;;;;;51.63;28.30;;;-2.00;99.90;;;-2.16;71.97;99492.34;4972242;28;20211;-70
2022/12/15 09:42:00;;;;;;;51.07;29.40;;;-2.00;99.90;;;-2.17;72.20;99499.84;4968252;28;20236;-71
2022/12/15 09:44:32;;;;;;;49.90;28.53;;;-2.00;99.90;;;-2.19;71.65;99499.81;4984099;28;20596;-71
2022/12/15 09:47:27;;;;;;;41.23;24.03;;;-2.00;99.90;;;-2.24;72.10;99498.84;4972738;28;20208;-70
2022/12/15 09:49:57;;;;;;;50.50;28.60;;;-2.10;99.90;;;-2.25;72.14;99502.16;4982365;28;20209;-70
2022/12/15 09:52:29;;;;;;;47.47;25.90;;;-2.10;99.90;;;-2.23;71.86;99510.63;4994207;28;20207;-69
2022/12/15 09:55:00;;;;;;;35.53;20.37;;;-2.10;99.90;;;-2.27;72.29;99503.78;4986015;28;20208;-66
2022/12/15 09:57:40;;;;;;;39.10;21.63;;;-2.10;99.90;;;-2.33;71.94;99509.47;4979020;28;20208;-66
2022/12/15 10:00:20;;;;;;;44.57;22.93;;;-2.10;99.90;;;-2.36;71.74;99511.06;4978680;28;20224;-68
2022/12/15 10:03:37;;;;;;;42.03;22.90;;;-2.20;99.90;;;-2.42;72.17;99514.25;4984440;28;20688;-68
2022/12/15 10:06:13;;;;;;;40.93;21.13;;;-2.20;99.90;;;-2.41;71.36;99513.44;4987363;28;20216;-67
2022/12/15 10:08:49;;;;;;;42.30;22.77;;;-2.30;99.90;;;-2.40;71.59;99521.84;4983739;28;20216;-65
2022/12/15 10:11:38;;;;;;;44.77;24.63;;;-2.30;99.90;;;-2.41;71.72;99515.13;4966632;28;20207;-67
2022/12/15 10:14:21;;;;;;;39.33;22.70;;;-2.20;99.90;;;-2.34;72.30;99522.06;4968986;28;20567;-68
2022/12/15 10:17:01;;;;;;;42.90;21.90;;;-2.20;99.90;;;-2.33;71.31;99528.81;4970299;28;20256;-68
2022/12/15 10:19:40;;;;;;;41.57;21.63;;;-2.20;99.90;;;-2.32;71.57;99530.53;4951824;29;20295;-68
2022/12/15 10:22:14;;;;;;;36.00;19.37;;;-2.20;99.90;;;-2.34;71.55;99524.59;4951120;28;20280;-70
2022/12/15 10:24:42;;;;;;;39.17;19.73;;;-2.20;99.90;;;-2.34;71.64;99537.19;4954355;28;20252;-70
2022/12/15 10:27:56;;;;;;;33.83;19.13;;;-2.20;99.90;;;-2.36;71.29;99544.69;4950353;28;20220;-70
2022/12/15 10:30:24;;;;;;;32.13;18.17;;;-2.20;99.90;;;-2.35;71.18;99536.34;4951112;28;20233;-70
2022/12/15 10:33:01;;;;;;;37.27;18.67;;;-2.20;99.90;;;-2.32;70.91;99543.13;4963881;28;20260;-70
2022/12/15 10:35:32;;;;;;;35.47;18.20;;;-2.10;99.90;;;-2.29;71.41;99540.72;4950436;28;20301;-71
2022/12/15 10:38:05;;;;;;;38.83;20.50;;;-2.10;99.90;;;-2.29;71.04;99541.56;4962552;28;20221;-72
2022/12/15 10:40:47;;;;;;;36.87;19.90;;;-2.10;99.90;;;-2.31;70.98;99547.41;4952907;28;20240;-72
2022/12/15 10:43:29;;;;;;;40.87;21.47;;;-2.10;99.90;;;-2.29;71.10;99555.84;4944968;28;20221;-71
2022/12/15 10:46:04;;;;;;;38.90;21.33;;;-2.10;99.90;;;-2.31;71.04;99553.28;4955875;28;20205;-70
2022/12/15 10:48:33;;;;;;;40.77;22.50;;;-2.10;99.90;;;-2.28;71.06;99560.97;4953535;28;20598;-70
2022/12/15 10:51:19;;;;;;;37.43;20.23;;;-2.10;99.90;;;-2.30;70.39;99564.25;4952126;28;20209;-71
2022/12/15 10:53:52;;;;;;;48.00;22.40;;;-2.20;99.90;;;-2.32;70.86;99559.16;4941934;29;20600;-70
2022/12/15 10:56:26;;;;;;;43.17;23.30;;;-2.10;99.90;;;-2.28;70.34;99563.50;4943721;28;20561;-68
2022/12/15 10:59:21;;;;;;;45.00;22.20;;;-2.10;99.90;;;-2.25;70.47;99572.81;4941852;28;20761;-72
2022/12/15 11:01:50;;;;;;;41.97;22.30;;;-2.10;99.90;;;-2.25;69.43;99575.31;4943966;28;20375;-73
2022/12/15 11:04:27;;;;;;;43.27;22.80;;;-2.10;99.90;;;-2.27;69.64;99580.34;4951647;28;20213;-72
2022/12/15 11:07:00;;;;;;;41.50;21.90;;;-2.10;99.90;;;-2.29;69.27;99583.59;4946473;28;20614;-71
2022/12/15 11:09:33;;;;;;;48.20;25.37;;;-2.20;99.90;;;-2.35;69.48;99576.72;4948510;28;20213;-71
2022/12/15 11:14:51;;;;;;;44.63;24.43;;;-2.30;99.90;;;-2.40;70.17;99582.41;4947339;28;20213;-72
2022/12/15 11:17:23;;;;;;;43.27;23.27;;;-2.20;99.90;;;-2.42;69.97;99589.94;4953806;28;20563;-71
2022/12/15 11:19:58;;;;;;;41.80;23.13;;;-2.30;99.90;;;-2.41;69.80;99595.84;4959139;28;20318;-71
2022/12/15 11:22:41;;;;;;;40.97;21.70;;;-2.30;99.90;;;-2.49;70.01;99595.59;4967277;28;20230;-70
2022/12/15 11:25:20;;;;;;;44.83;23.17;;;-2.40;99.90;;;-2.55;70.22;99597.88;4967871;28;20574;-72
2022/12/15 11:27:50;;;;;;;40.20;22.07;;;-2.30;99.90;;;-2.62;70.20;99599.34;4963985;28;20265;-70
2022/12/15 11:30:24;;;;;;;38.03;21.03;;;-2.40;99.90;;;-2.67;70.15;99604.25;4966069;28;20201;-72
2022/12/15 11:32:57;;;;;;;41.67;20.93;;;-2.50;99.90;;;-2.73;70.15;99603.16;4962553;28;20269;-73
2022/12/15 11:35:33;;;;;;;40.67;21.60;;;-2.60;99.90;;;-2.77;70.36;99621.50;4970727;28;20251;-73
2022/12/15 11:38:16;;;;;;;37.63;19.43;;;-2.60;99.90;;;-2.84;70.39;99619.59;4971683;28;20224;-74
2022/12/15 11:40:45;;;;;;;41.23;19.73;;;-2.70;99.90;;;-2.90;70.71;99620.25;4972230;28;20259;-71
2022/12/15 11:43:38;;;;;;;37.30;18.30;;;-2.70;99.90;;;-2.93;71.19;99630.22;4967061;28;20224;-73
2022/12/15 11:46:22;;;;;;;35.07;20.30;;;-2.70;99.90;;;-2.95;71.54;99621.72;4968742;28;20271;-70
2022/12/15 11:49:47;;;;;;;40.70;21.57;;;-2.70;99.90;;;-2.96;71.88;99637.66;4969602;28;20262;-74
2022/12/15 11:52:44;;;;;;;44.07;22.67;;;-2.80;99.90;;;-2.97;71.65;99638.47;4967614;28;20213;-71
2022/12/15 11:55:23;;;;;;;49.40;23.40;;;-2.80;99.90;;;-3.00;71.98;99646.78;4970863;28;20674;-73
2022/12/15 11:58:39;;;;;;;40.97;21.87;;;-2.80;99.90;;;-3.03;72.35;99646.66;4969418;28;20276;-71
2022/12/15 12:01:31;;;;;;;46.60;23.17;;;-2.90;99.90;;;-3.03;72.20;99654.22;4971483;28;20637;-72
2022/12/15 12:04:12;;;;;;;47.30;24.50;;;-2.70;99.90;;;-3.01;72.22;99659.31;4968082;28;20702;-74
2022/12/15 12:06:51;;;;;;;48.47;24.83;;;-2.60;99.90;;;-3.01;72.44;99655.16;4954150;28;21019;-71
2022/12/15 12:09:32;;;;;;;52.03;24.37;;;-2.90;99.90;;;-3.02;72.06;99655.94;4966042;28;20216;-71
2022/12/15 12:12:20;;;;;;;47.73;23.93;;;-2.90;99.90;;;-3.02;72.61;99661.00;4974454;28;20235;-72
2022/12/15 12:14:59;;;;;;;56.43;28.20;;;-2.90;99.90;;;-2.99;73.00;99671.16;4971585;28;20723;-70
2022/12/15 12:17:42;;;;;;;52.77;27.00;;;-2.80;99.90;;;-3.00;72.92;99666.06;4969530;28;20303;-73
2022/12/15 12:20:18;;;;;;;51.90;26.20;;;-2.80;99.90;;;-2.98;73.01;99667.88;4968388;28;20209;-71
2022/12/15 12:22:57;;;;;;;52.90;27.80;;;-2.80;99.90;;;-2.99;73.29;99676.19;4967217;28;20635;-72
2022/12/15 12:25:26;;;;;;;55.30;26.33;;;-2.80;99.90;;;-2.98;72.63;99672.91;4965105;28;20232;-72
2022/12/15 12:28:00;;;;;;;54.60;26.33;;;-2.80;99.90;;;-2.97;73.09;99684.69;4970769;28;20218;-71
2022/12/15 12:30:34;;;;;;;57.33;28.00;;;-2.80;99.90;;;-2.98;73.32;99670.38;4972635;28;20212;-73
2022/12/15 12:33:16;;;;;;;64.03;29.87;;;-2.80;99.90;;;-2.97;73.21;99682.16;4964347;28;20208;-71
2022/12/15 12:35:50;;;;;;;58.33;28.33;;;-2.80;99.90;;;-3.01;73.18;99687.91;4966158;28;20271;-72
2022/12/15 12:38:24;;;;;;;56.63;29.17;;;-2.90;99.90;;;-3.02;73.45;99700.44;4966326;28;20688;-73
2022/12/15 12:41:04;;;;;;;65.47;29.90;;;-2.90;99.90;;;-3.05;73.47;99706.25;4967155;28;20267;-74
2022/12/15 12:43:36;;;;;;;62.07;29.63;;;-2.90;99.90;;;-3.03;73.67;99709.66;4968781;28;20354;-72
2022/12/15 12:46:13;;;;;;;60.77;29.83;;;-2.90;99.90;;;-3.02;74.24;99701.31;4967125;28;20684;-73
2022/12/15 12:48:50;;;;;;;62.40;28.70;;;-2.90;99.90;;;-2.98;74.20;99700.63;4959754;28;20680;-72
2022/12/15 12:51:27;;;;;;;60.67;29.27;;;-2.80;99.90;;;-2.95;73.99;99703.22;4962165;28;20596;-72
2022/12/15 12:53:56;;;;;;;58.70;28.47;;;-2.80;99.90;;;-2.90;73.53;99722.75;4965406;28;20201;-69
2022/12/15 12:56:39;;;;;;;66.53;33.03;;;-2.80;99.90;;;-2.92;74.00;99708.41;4970550;28;20628;-71
2022/12/15 12:59:48;;;;;;;59.97;30.17;;;-2.80;99.90;;;-2.89;73.94;99722.78;4970517;28;20204;-68